sensor_id;sensor_type;location;lat;lon;timestamp;P1;durP1;ratioP1;P2;durP2;ratioP2
54406;SDS011;40313;50.308;30.374;2022-07-23T00:01:30;4.75;;;4.10;;
54406;SDS011;40313;50.308;30.374;2022-07-23T00:03:58;7.50;;;3.35;;
54406;SDS011;40313;50.308;30.374;2022-07-23T00:06:25;11.68;;;3.70;;
54406;SDS011;40313;50.308;30.374;2022-07-23T00:08:52;10.18;;;3.42;;
54406;SDS011;40313;50.308;30.374;2022-07-23T00:11:19;3.40;;;2.78;;
54406;SDS011;40313;50.308;30.374;2022-07-23T00:13:47;3.85;;;3.55;;
54406;SDS011;40313;50.308;30.374;2022-07-23T00:16:14;3.78;;;3.58;;
54406;SDS011;40313;50.308;30.374;2022-07-23T00:18:40;5.40;;;3.85;;
54406;SDS011;40313;50.308;30.374;2022-07-23T00:21:08;4.30;;;3.92;;
54406;SDS011;40313;50.308;30.374;2022-07-23T00:23:35;4.22;;;3.58;;
54406;SDS011;40313;50.308;30.374;2022-07-23T00:26:02;5.63;;;4.38;;
54406;SDS011;40313;50.308;30.374;2022-07-23T00:28:28;5.85;;;4.28;;
54406;SDS011;40313;50.308;30.374;2022-07-23T00:30:55;11.45;;;4.28;;
54406;SDS011;40313;50.308;30.374;2022-07-23T00:33:22;5.03;;;4.63;;
54406;SDS011;40313;50.308;30.374;2022-07-23T00:35:48;4.70;;;4.30;;
54406;SDS011;40313;50.308;30.374;2022-07-23T00:38:16;5.00;;;4.70;;
54406;SDS011;40313;50.308;30.374;2022-07-23T00:40:43;13.73;;;4.18;;
54406;SDS011;40313;50.308;30.374;2022-07-23T00:43:10;5.05;;;4.55;;
54406;SDS011;40313;50.308;30.374;2022-07-23T00:45:36;4.97;;;4.50;;
54406;SDS011;40313;50.308;30.374;2022-07-23T00:48:03;5.15;;;4.20;;
54406;SDS011;40313;50.308;30.374;2022-07-23T00:50:30;5.65;;;4.43;;
54406;SDS011;40313;50.308;30.374;2022-07-23T00:52:57;4.15;;;3.85;;
54406;SDS011;40313;50.308;30.374;2022-07-23T00:55:25;4.68;;;3.90;;
54406;SDS011;40313;50.308;30.374;2022-07-23T00:57:52;5.00;;;3.47;;
54406;SDS011;40313;50.308;30.374;2022-07-23T01:00:21;7.07;;;4.25;;
54406;SDS011;40313;50.308;30.374;2022-07-23T01:02:48;6.85;;;3.88;;
54406;SDS011;40313;50.308;30.374;2022-07-23T01:05:15;17.13;;;3.78;;
54406;SDS011;40313;50.308;30.374;2022-07-23T01:07:42;4.35;;;4.05;;
54406;SDS011;40313;50.308;30.374;2022-07-23T01:10:10;7.93;;;4.28;;
54406;SDS011;40313;50.308;30.374;2022-07-23T01:12:52;5.10;;;3.97;;
54406;SDS011;40313;50.308;30.374;2022-07-23T01:15:19;3.90;;;3.63;;
54406;SDS011;40313;50.308;30.374;2022-07-23T01:17:45;4.07;;;3.85;;
54406;SDS011;40313;50.308;30.374;2022-07-23T01:20:12;4.13;;;3.88;;
54406;SDS011;40313;50.308;30.374;2022-07-23T01:22:40;4.95;;;4.18;;
54406;SDS011;40313;50.308;30.374;2022-07-23T01:25:07;5.53;;;4.43;;
54406;SDS011;40313;50.308;30.374;2022-07-23T01:27:34;7.00;;;3.63;;
54406;SDS011;40313;50.308;30.374;2022-07-23T01:30:02;10.15;;;4.35;;
54406;SDS011;40313;50.308;30.374;2022-07-23T01:32:29;4.15;;;3.83;;
54406;SDS011;40313;50.308;30.374;2022-07-23T01:34:56;9.75;;;4.10;;
54406;SDS011;40313;50.308;30.374;2022-07-23T01:37:23;4.72;;;4.10;;
54406;SDS011;40313;50.308;30.374;2022-07-23T01:39:51;4.65;;;4.13;;
54406;SDS011;40313;50.308;30.374;2022-07-23T01:42:17;5.47;;;3.95;;
54406;SDS011;40313;50.308;30.374;2022-07-23T01:44:44;5.85;;;4.88;;
54406;SDS011;40313;50.308;30.374;2022-07-23T01:47:11;10.95;;;4.65;;
54406;SDS011;40313;50.308;30.374;2022-07-23T01:49:37;4.82;;;4.35;;
54406;SDS011;40313;50.308;30.374;2022-07-23T01:52:04;8.48;;;3.92;;
54406;SDS011;40313;50.308;30.374;2022-07-23T01:54:34;11.20;;;4.35;;
54406;SDS011;40313;50.308;30.374;2022-07-23T01:57:02;4.18;;;3.85;;
54406;SDS011;40313;50.308;30.374;2022-07-23T01:59:29;4.57;;;4.18;;
54406;SDS011;40313;50.308;30.374;2022-07-23T02:01:56;5.70;;;4.47;;
54406;SDS011;40313;50.308;30.374;2022-07-23T02:04:23;4.68;;;4.38;;
54406;SDS011;40313;50.308;30.374;2022-07-23T02:06:51;4.35;;;3.95;;
54406;SDS011;40313;50.308;30.374;2022-07-23T02:09:18;4.25;;;3.95;;
54406;SDS011;40313;50.308;30.374;2022-07-23T02:11:45;4.45;;;4.07;;
54406;SDS011;40313;50.308;30.374;2022-07-23T02:14:13;5.40;;;4.50;;
54406;SDS011;40313;50.308;30.374;2022-07-23T02:16:40;5.22;;;4.70;;
54406;SDS011;40313;50.308;30.374;2022-07-23T02:19:07;9.10;;;4.43;;
54406;SDS011;40313;50.308;30.374;2022-07-23T02:21:33;5.55;;;5.05;;
54406;SDS011;40313;50.308;30.374;2022-07-23T02:24:00;14.23;;;5.40;;
54406;SDS011;40313;50.308;30.374;2022-07-23T02:26:27;5.25;;;4.80;;
54406;SDS011;40313;50.308;30.374;2022-07-23T02:28:54;4.72;;;4.43;;
54406;SDS011;40313;50.308;30.374;2022-07-23T02:31:22;9.55;;;4.18;;
54406;SDS011;40313;50.308;30.374;2022-07-23T02:33:48;4.65;;;4.35;;
54406;SDS011;40313;50.308;30.374;2022-07-23T02:36:15;7.93;;;4.22;;
54406;SDS011;40313;50.308;30.374;2022-07-23T02:38:42;6.38;;;4.68;;
54406;SDS011;40313;50.308;30.374;2022-07-23T02:41:08;9.63;;;4.80;;
54406;SDS011;40313;50.308;30.374;2022-07-23T02:43:35;9.52;;;4.50;;
54406;SDS011;40313;50.308;30.374;2022-07-23T02:46:02;5.78;;;5.15;;
54406;SDS011;40313;50.308;30.374;2022-07-23T02:48:30;5.40;;;5.10;;
54406;SDS011;40313;50.308;30.374;2022-07-23T02:50:56;7.78;;;5.18;;
54406;SDS011;40313;50.308;30.374;2022-07-23T02:53:23;5.57;;;4.90;;
54406;SDS011;40313;50.308;30.374;2022-07-23T02:55:50;5.18;;;4.78;;
54406;SDS011;40313;50.308;30.374;2022-07-23T02:58:16;6.80;;;5.00;;
54406;SDS011;40313;50.308;30.374;2022-07-23T03:00:44;6.18;;;5.78;;
54406;SDS011;40313;50.308;30.374;2022-07-23T03:03:10;5.55;;;5.15;;
54406;SDS011;40313;50.308;30.374;2022-07-23T03:05:38;5.85;;;5.13;;
54406;SDS011;40313;50.308;30.374;2022-07-23T03:08:05;6.05;;;5.47;;
54406;SDS011;40313;50.308;30.374;2022-07-23T03:10:32;5.43;;;5.13;;
54406;SDS011;40313;50.308;30.374;2022-07-23T03:12:58;5.97;;;5.47;;
54406;SDS011;40313;50.308;30.374;2022-07-23T03:15:25;5.85;;;5.45;;
54406;SDS011;40313;50.308;30.374;2022-07-23T03:17:52;9.20;;;6.05;;
54406;SDS011;40313;50.308;30.374;2022-07-23T03:20:18;12.75;;;5.18;;
54406;SDS011;40313;50.308;30.374;2022-07-23T03:22:46;5.22;;;4.90;;
54406;SDS011;40313;50.308;30.374;2022-07-23T03:25:13;4.78;;;4.47;;
54406;SDS011;40313;50.308;30.374;2022-07-23T03:27:40;5.53;;;5.03;;
54406;SDS011;40313;50.308;30.374;2022-07-23T03:30:07;5.40;;;5.10;;
54406;SDS011;40313;50.308;30.374;2022-07-23T03:32:34;5.32;;;4.93;;
54406;SDS011;40313;50.308;30.374;2022-07-23T03:35:01;9.18;;;5.20;;
54406;SDS011;40313;50.308;30.374;2022-07-23T03:37:28;7.15;;;5.20;;
54406;SDS011;40313;50.308;30.374;2022-07-23T03:39:56;5.47;;;5.15;;
54406;SDS011;40313;50.308;30.374;2022-07-23T03:42:22;4.68;;;4.38;;
54406;SDS011;40313;50.308;30.374;2022-07-23T03:44:49;5.20;;;4.72;;
54406;SDS011;40313;50.308;30.374;2022-07-23T03:47:16;4.88;;;4.43;;
54406;SDS011;40313;50.308;30.374;2022-07-23T03:49:46;4.82;;;4.30;;
54406;SDS011;40313;50.308;30.374;2022-07-23T03:52:13;4.95;;;4.47;;
54406;SDS011;40313;50.308;30.374;2022-07-23T03:54:40;4.90;;;4.60;;
54406;SDS011;40313;50.308;30.374;2022-07-23T03:57:08;4.95;;;4.65;;
54406;SDS011;40313;50.308;30.374;2022-07-23T03:59:34;4.43;;;4.00;;
54406;SDS011;40313;50.308;30.374;2022-07-23T04:02:01;4.10;;;3.65;;
54406;SDS011;40313;50.308;30.374;2022-07-23T04:04:28;4.30;;;4.00;;
54406;SDS011;40313;50.308;30.374;2022-07-23T04:06:54;7.07;;;3.78;;
54406;SDS011;40313;50.308;30.374;2022-07-23T04:09:21;4.75;;;4.15;;
54406;SDS011;40313;50.308;30.374;2022-07-23T04:11:48;5.80;;;4.55;;
54406;SDS011;40313;50.308;30.374;2022-07-23T04:14:16;6.95;;;4.35;;
54406;SDS011;40313;50.308;30.374;2022-07-23T04:16:42;13.90;;;4.65;;
54406;SDS011;40313;50.308;30.374;2022-07-23T04:19:09;3.90;;;3.70;;
54406;SDS011;40313;50.308;30.374;2022-07-23T04:21:35;10.50;;;3.47;;
54406;SDS011;40313;50.308;30.374;2022-07-23T04:24:02;15.05;;;2.90;;
54406;SDS011;40313;50.308;30.374;2022-07-23T04:26:29;7.95;;;3.47;;
54406;SDS011;40313;50.308;30.374;2022-07-23T04:28:56;3.55;;;3.35;;
54406;SDS011;40313;50.308;30.374;2022-07-23T04:31:24;6.25;;;3.38;;
54406;SDS011;40313;50.308;30.374;2022-07-23T04:33:51;2.95;;;2.75;;
54406;SDS011;40313;50.308;30.374;2022-07-23T04:36:18;3.47;;;3.28;;
54406;SDS011;40313;50.308;30.374;2022-07-23T04:38:44;3.33;;;3.13;;
54406;SDS011;40313;50.308;30.374;2022-07-23T04:41:11;5.60;;;3.58;;
54406;SDS011;40313;50.308;30.374;2022-07-23T04:43:37;3.10;;;2.90;;
54406;SDS011;40313;50.308;30.374;2022-07-23T04:46:04;3.92;;;3.63;;
54406;SDS011;40313;50.308;30.374;2022-07-23T04:48:32;3.47;;;3.17;;
54406;SDS011;40313;50.308;30.374;2022-07-23T04:50:59;4.90;;;3.70;;
54406;SDS011;40313;50.308;30.374;2022-07-23T04:53:26;10.50;;;3.13;;
54406;SDS011;40313;50.308;30.374;2022-07-23T04:55:52;8.68;;;3.08;;
54406;SDS011;40313;50.308;30.374;2022-07-23T04:58:19;3.00;;;2.80;;
54406;SDS011;40313;50.308;30.374;2022-07-23T05:00:46;3.42;;;3.22;;
54406;SDS011;40313;50.308;30.374;2022-07-23T05:03:13;4.20;;;3.22;;
54406;SDS011;40313;50.308;30.374;2022-07-23T05:05:41;5.15;;;3.10;;
54406;SDS011;40313;50.308;30.374;2022-07-23T05:08:08;5.22;;;3.17;;
54406;SDS011;40313;50.308;30.374;2022-07-23T05:10:35;4.72;;;3.20;;
54406;SDS011;40313;50.308;30.374;2022-07-23T05:13:01;10.45;;;3.25;;
54406;SDS011;40313;50.308;30.374;2022-07-23T05:15:28;2.72;;;2.53;;
54406;SDS011;40313;50.308;30.374;2022-07-23T05:17:55;2.60;;;2.47;;
54406;SDS011;40313;50.308;30.374;2022-07-23T05:20:22;4.57;;;2.22;;
54406;SDS011;40313;50.308;30.374;2022-07-23T05:22:50;7.05;;;2.05;;
54406;SDS011;40313;50.308;30.374;2022-07-23T05:25:16;4.60;;;1.67;;
54406;SDS011;40313;50.308;30.374;2022-07-23T05:27:43;6.20;;;2.00;;
54406;SDS011;40313;50.308;30.374;2022-07-23T05:30:10;1.70;;;1.60;;
54406;SDS011;40313;50.308;30.374;2022-07-23T05:32:37;2.72;;;1.80;;
54406;SDS011;40313;50.308;30.374;2022-07-23T05:35:04;4.80;;;1.90;;
54406;SDS011;40313;50.308;30.374;2022-07-23T05:37:32;4.00;;;1.73;;
54406;SDS011;40313;50.308;30.374;2022-07-23T05:40:01;2.13;;;1.45;;
54406;SDS011;40313;50.308;30.374;2022-07-23T05:42:31;6.18;;;2.20;;
54406;SDS011;40313;50.308;30.374;2022-07-23T05:44:58;5.38;;;1.83;;
54406;SDS011;40313;50.308;30.374;2022-07-23T05:47:24;2.33;;;2.13;;
54406;SDS011;40313;50.308;30.374;2022-07-23T05:49:51;7.03;;;3.30;;
54406;SDS011;40313;50.308;30.374;2022-07-23T05:52:18;2.63;;;2.40;;
54406;SDS011;40313;50.308;30.374;2022-07-23T05:54:45;8.27;;;1.70;;
54406;SDS011;40313;50.308;30.374;2022-07-23T05:57:13;1.35;;;1.05;;
54406;SDS011;40313;50.308;30.374;2022-07-23T05:59:39;2.28;;;1.27;;
54406;SDS011;40313;50.308;30.374;2022-07-23T06:02:06;3.45;;;1.63;;
54406;SDS011;40313;50.308;30.374;2022-07-23T06:04:33;2.88;;;1.15;;
54406;SDS011;40313;50.308;30.374;2022-07-23T06:06:59;3.53;;;0.75;;
54406;SDS011;40313;50.308;30.374;2022-07-23T06:09:26;1.17;;;0.90;;
54406;SDS011;40313;50.308;30.374;2022-07-23T06:11:53;1.10;;;0.60;;
54406;SDS011;40313;50.308;30.374;2022-07-23T07:17:53;5.90;;;1.40;;
54406;SDS011;40313;50.308;30.374;2022-07-23T07:20:20;2.47;;;0.88;;
54406;SDS011;40313;50.308;30.374;2022-07-23T07:22:48;1.67;;;0.60;;
54406;SDS011;40313;50.308;30.374;2022-07-23T07:25:14;1.05;;;0.70;;
54406;SDS011;40313;50.308;30.374;2022-07-23T07:27:41;5.88;;;0.82;;
54406;SDS011;40313;50.308;30.374;2022-07-23T07:30:10;5.10;;;0.93;;
54406;SDS011;40313;50.308;30.374;2022-07-23T07:32:37;3.42;;;1.23;;
54406;SDS011;40313;50.308;30.374;2022-07-23T07:35:04;3.92;;;0.82;;
54406;SDS011;40313;50.308;30.374;2022-07-23T07:37:31;3.33;;;0.85;;
54406;SDS011;40313;50.308;30.374;2022-07-23T07:39:59;1.73;;;0.52;;
54406;SDS011;40313;50.308;30.374;2022-07-23T07:42:26;1.05;;;0.70;;
54406;SDS011;40313;50.308;30.374;2022-07-23T07:44:52;1.45;;;0.82;;
54406;SDS011;40313;50.308;30.374;2022-07-23T07:47:19;4.65;;;0.65;;
54406;SDS011;40313;50.308;30.374;2022-07-23T07:49:46;4.72;;;0.57;;
54406;SDS011;40313;50.308;30.374;2022-07-23T07:52:12;2.55;;;0.70;;
54406;SDS011;40313;50.308;30.374;2022-07-23T07:54:39;10.40;;;0.90;;
54406;SDS011;40313;50.308;30.374;2022-07-23T07:57:07;5.10;;;0.70;;
54406;SDS011;40313;50.308;30.374;2022-07-23T07:59:34;1.23;;;0.60;;
54406;SDS011;40313;50.308;30.374;2022-07-23T08:02:01;1.55;;;0.73;;
54406;SDS011;40313;50.308;30.374;2022-07-23T08:04:28;4.32;;;0.55;;
54406;SDS011;40313;50.308;30.374;2022-07-23T08:06:55;2.28;;;0.70;;
54406;SDS011;40313;50.308;30.374;2022-07-23T08:09:21;1.05;;;0.75;;
54406;SDS011;40313;50.308;30.374;2022-07-23T08:11:48;3.40;;;0.80;;
54406;SDS011;40313;50.308;30.374;2022-07-23T08:14:18;2.05;;;0.70;;
54406;SDS011;40313;50.308;30.374;2022-07-23T08:16:44;0.70;;;0.70;;
54406;SDS011;40313;50.308;30.374;2022-07-23T08:19:11;5.32;;;0.63;;
54406;SDS011;40313;50.308;30.374;2022-07-23T08:21:38;1.05;;;0.70;;
54406;SDS011;40313;50.308;30.374;2022-07-23T08:24:05;4.10;;;1.05;;
54406;SDS011;40313;50.308;30.374;2022-07-23T08:26:31;1.15;;;0.52;;
54406;SDS011;40313;50.308;30.374;2022-07-23T08:28:58;4.88;;;0.98;;
54406;SDS011;40313;50.308;30.374;2022-07-23T08:31:26;0.63;;;0.57;;
54406;SDS011;40313;50.308;30.374;2022-07-23T08:33:53;1.05;;;0.60;;
54406;SDS011;40313;50.308;30.374;2022-07-23T08:36:20;0.68;;;0.60;;
54406;SDS011;40313;50.308;30.374;2022-07-23T08:38:46;2.05;;;0.85;;
54406;SDS011;40313;50.308;30.374;2022-07-23T08:41:13;3.80;;;0.60;;
54406;SDS011;40313;50.308;30.374;2022-07-23T08:43:41;3.72;;;0.80;;
54406;SDS011;40313;50.308;30.374;2022-07-23T08:46:08;1.42;;;0.90;;
54406;SDS011;40313;50.308;30.374;2022-07-23T08:48:36;9.82;;;0.98;;
54406;SDS011;40313;50.308;30.374;2022-07-23T08:51:03;1.75;;;0.90;;
54406;SDS011;40313;50.308;30.374;2022-07-23T08:53:31;3.42;;;0.90;;
54406;SDS011;40313;50.308;30.374;2022-07-23T08:56:01;8.02;;;0.63;;
54406;SDS011;40313;50.308;30.374;2022-07-23T08:58:29;3.47;;;1.23;;
54406;SDS011;40313;50.308;30.374;2022-07-23T09:00:57;6.35;;;0.88;;
54406;SDS011;40313;50.308;30.374;2022-07-23T09:03:24;4.47;;;1.02;;
54406;SDS011;40313;50.308;30.374;2022-07-23T09:05:54;12.90;;;0.85;;
54406;SDS011;40313;50.308;30.374;2022-07-23T09:08:23;2.80;;;0.70;;
54406;SDS011;40313;50.308;30.374;2022-07-23T09:10:51;1.55;;;0.90;;
54406;SDS011;40313;50.308;30.374;2022-07-23T09:16:07;2.20;;;0.80;;
54406;SDS011;40313;50.308;30.374;2022-07-23T09:18:39;3.00;;;0.93;;
54406;SDS011;40313;50.308;30.374;2022-07-23T09:21:17;5.97;;;1.13;;
54406;SDS011;40313;50.308;30.374;2022-07-23T09:23:47;4.32;;;0.80;;
54406;SDS011;40313;50.308;30.374;2022-07-23T09:26:19;4.30;;;0.90;;
54406;SDS011;40313;50.308;30.374;2022-07-23T09:28:52;2.60;;;0.90;;
54406;SDS011;40313;50.308;30.374;2022-07-23T09:31:21;4.07;;;0.80;;
54406;SDS011;40313;50.308;30.374;2022-07-23T09:33:48;1.70;;;0.68;;
54406;SDS011;40313;50.308;30.374;2022-07-23T09:36:16;3.95;;;0.70;;
54406;SDS011;40313;50.308;30.374;2022-07-23T09:38:53;1.23;;;0.73;;
54406;SDS011;40313;50.308;30.374;2022-07-23T09:41:20;3.92;;;0.50;;
54406;SDS011;40313;50.308;30.374;2022-07-23T09:43:52;1.42;;;0.77;;
54406;SDS011;40313;50.308;30.374;2022-07-23T09:46:21;1.40;;;0.68;;
54406;SDS011;40313;50.308;30.374;2022-07-23T09:48:49;12.25;;;0.93;;
54406;SDS011;40313;50.308;30.374;2022-07-23T09:51:19;1.45;;;0.70;;
54406;SDS011;40313;50.308;30.374;2022-07-23T09:53:53;8.82;;;0.75;;
54406;SDS011;40313;50.308;30.374;2022-07-23T09:56:20;1.33;;;0.55;;
54406;SDS011;40313;50.308;30.374;2022-07-23T09:58:47;1.20;;;0.80;;
54406;SDS011;40313;50.308;30.374;2022-07-23T10:01:17;2.30;;;0.70;;
54406;SDS011;40313;50.308;30.374;2022-07-23T10:03:45;11.93;;;1.17;;
54406;SDS011;40313;50.308;30.374;2022-07-23T10:06:12;2.13;;;0.85;;
54406;SDS011;40313;50.308;30.374;2022-07-23T10:08:41;1.70;;;0.70;;
54406;SDS011;40313;50.308;30.374;2022-07-23T10:11:14;5.03;;;1.00;;
54406;SDS011;40313;50.308;30.374;2022-07-23T10:13:41;6.30;;;0.80;;
54406;SDS011;40313;50.308;30.374;2022-07-23T10:16:18;1.15;;;0.80;;
54406;SDS011;40313;50.308;30.374;2022-07-23T10:18:45;4.75;;;0.90;;
54406;SDS011;40313;50.308;30.374;2022-07-23T10:21:12;10.48;;;1.45;;
54406;SDS011;40313;50.308;30.374;2022-07-23T10:23:57;1.50;;;0.80;;
54406;SDS011;40313;50.308;30.374;2022-07-23T10:26:32;2.03;;;1.20;;
54406;SDS011;40313;50.308;30.374;2022-07-23T10:29:11;6.38;;;0.85;;
54406;SDS011;40313;50.308;30.374;2022-07-23T10:31:52;5.85;;;1.08;;
54406;SDS011;40313;50.308;30.374;2022-07-23T10:34:25;2.20;;;1.10;;
54406;SDS011;40313;50.308;30.374;2022-07-23T10:37:04;2.50;;;0.80;;
54406;SDS011;40313;50.308;30.374;2022-07-23T10:39:40;10.77;;;0.90;;
54406;SDS011;40313;50.308;30.374;2022-07-23T10:42:07;1.00;;;0.90;;
54406;SDS011;40313;50.308;30.374;2022-07-23T10:44:38;1.42;;;1.10;;
54406;SDS011;40313;50.308;30.374;2022-07-23T10:47:07;5.03;;;1.42;;
54406;SDS011;40313;50.308;30.374;2022-07-23T10:49:49;7.03;;;0.88;;
54406;SDS011;40313;50.308;30.374;2022-07-23T10:52:19;7.53;;;1.05;;
54406;SDS011;40313;50.308;30.374;2022-07-23T10:54:49;0.80;;;0.80;;
54406;SDS011;40313;50.308;30.374;2022-07-23T10:57:17;15.63;;;1.90;;
54406;SDS011;40313;50.308;30.374;2022-07-23T11:02:47;10.77;;;1.30;;
54406;SDS011;40313;50.308;30.374;2022-07-23T11:05:15;0.85;;;0.70;;
54406;SDS011;40313;50.308;30.374;2022-07-23T11:10:41;3.00;;;1.08;;
54406;SDS011;40313;50.308;30.374;2022-07-23T11:16:05;2.22;;;1.15;;
54406;SDS011;40313;50.308;30.374;2022-07-23T11:21:43;1.75;;;0.80;;
54406;SDS011;40313;50.308;30.374;2022-07-23T11:24:17;4.03;;;0.60;;
54406;SDS011;40313;50.308;30.374;2022-07-23T11:26:48;0.82;;;0.82;;
54406;SDS011;40313;50.308;30.374;2022-07-23T11:29:38;5.78;;;2.10;;
54406;SDS011;40313;50.308;30.374;2022-07-23T11:32:26;1.95;;;1.40;;
54406;SDS011;40313;50.308;30.374;2022-07-23T11:40:07;6.82;;;1.17;;
54406;SDS011;40313;50.308;30.374;2022-07-23T11:42:38;5.72;;;1.00;;
54406;SDS011;40313;50.308;30.374;2022-07-23T11:45:06;5.85;;;0.80;;
54406;SDS011;40313;50.308;30.374;2022-07-23T11:47:34;1.83;;;0.80;;
54406;SDS011;40313;50.308;30.374;2022-07-23T11:50:03;1.10;;;0.90;;
54406;SDS011;40313;50.308;30.374;2022-07-23T11:52:31;2.28;;;1.02;;
54406;SDS011;40313;50.308;30.374;2022-07-23T11:54:59;5.72;;;0.90;;
54406;SDS011;40313;50.308;30.374;2022-07-23T11:57:27;1.30;;;0.82;;
54406;SDS011;40313;50.308;30.374;2022-07-23T11:59:57;2.33;;;0.90;;
54406;SDS011;40313;50.308;30.374;2022-07-23T12:02:31;5.80;;;1.05;;
54406;SDS011;40313;50.308;30.374;2022-07-23T12:04:58;2.88;;;0.88;;
54406;SDS011;40313;50.308;30.374;2022-07-23T12:07:25;0.95;;;0.82;;
54406;SDS011;40313;50.308;30.374;2022-07-23T12:09:54;4.30;;;1.10;;
54406;SDS011;40313;50.308;30.374;2022-07-23T12:12:22;3.03;;;1.33;;
54406;SDS011;40313;50.308;30.374;2022-07-23T12:14:50;1.85;;;0.85;;
54406;SDS011;40313;50.308;30.374;2022-07-23T12:17:20;3.10;;;1.00;;
54406;SDS011;40313;50.308;30.374;2022-07-23T12:19:47;1.95;;;1.08;;
54406;SDS011;40313;50.308;30.374;2022-07-23T12:22:14;1.10;;;0.88;;
54406;SDS011;40313;50.308;30.374;2022-07-23T12:24:57;2.97;;;1.05;;
54406;SDS011;40313;50.308;30.374;2022-07-23T12:27:25;2.72;;;0.85;;
54406;SDS011;40313;50.308;30.374;2022-07-23T12:29:53;1.55;;;1.00;;
54406;SDS011;40313;50.308;30.374;2022-07-23T12:32:22;1.88;;;0.80;;
54406;SDS011;40313;50.308;30.374;2022-07-23T12:35:00;4.15;;;0.63;;
54406;SDS011;40313;50.308;30.374;2022-07-23T12:37:30;3.67;;;0.98;;
54406;SDS011;40313;50.308;30.374;2022-07-23T12:39:58;4.28;;;1.10;;
54406;SDS011;40313;50.308;30.374;2022-07-23T12:42:44;0.88;;;0.52;;
54406;SDS011;40313;50.308;30.374;2022-07-23T12:45:11;9.25;;;1.17;;
54406;SDS011;40313;50.308;30.374;2022-07-23T12:47:53;2.35;;;0.90;;
54406;SDS011;40313;50.308;30.374;2022-07-23T12:50:42;4.70;;;0.80;;
54406;SDS011;40313;50.308;30.374;2022-07-23T12:53:14;4.55;;;0.88;;
54406;SDS011;40313;50.308;30.374;2022-07-23T12:55:42;0.98;;;0.80;;
54406;SDS011;40313;50.308;30.374;2022-07-23T12:58:11;1.25;;;0.88;;
54406;SDS011;40313;50.308;30.374;2022-07-23T13:00:55;1.40;;;0.80;;
54406;SDS011;40313;50.308;30.374;2022-07-23T13:03:26;6.72;;;0.90;;
54406;SDS011;40313;50.308;30.374;2022-07-23T13:05:54;5.00;;;0.90;;
54406;SDS011;40313;50.308;30.374;2022-07-23T13:08:22;1.58;;;1.08;;
54406;SDS011;40313;50.308;30.374;2022-07-23T13:10:49;1.33;;;0.90;;
54406;SDS011;40313;50.308;30.374;2022-07-23T13:13:19;2.85;;;0.88;;
54406;SDS011;40313;50.308;30.374;2022-07-23T13:15:46;13.32;;;0.93;;
54406;SDS011;40313;50.308;30.374;2022-07-23T13:18:13;1.00;;;0.55;;
54406;SDS011;40313;50.308;30.374;2022-07-23T13:20:41;0.77;;;0.60;;
54406;SDS011;40313;50.308;30.374;2022-07-23T13:23:07;6.20;;;0.90;;
54406;SDS011;40313;50.308;30.374;2022-07-23T13:25:34;1.35;;;0.73;;
54406;SDS011;40313;50.308;30.374;2022-07-23T13:28:01;2.80;;;0.80;;
54406;SDS011;40313;50.308;30.374;2022-07-23T13:30:28;3.42;;;1.00;;
54406;SDS011;40313;50.308;30.374;2022-07-23T13:32:55;1.55;;;0.60;;
54406;SDS011;40313;50.308;30.374;2022-07-23T13:35:22;4.30;;;0.88;;
54406;SDS011;40313;50.308;30.374;2022-07-23T13:37:50;3.08;;;0.90;;
54406;SDS011;40313;50.308;30.374;2022-07-23T13:40:17;1.20;;;0.52;;
54406;SDS011;40313;50.308;30.374;2022-07-23T13:42:43;2.47;;;0.93;;
54406;SDS011;40313;50.308;30.374;2022-07-23T13:45:10;2.17;;;1.20;;
54406;SDS011;40313;50.308;30.374;2022-07-23T13:47:37;2.83;;;0.57;;
54406;SDS011;40313;50.308;30.374;2022-07-23T13:50:05;2.92;;;0.88;;
54406;SDS011;40313;50.308;30.374;2022-07-23T13:52:32;1.92;;;0.90;;
54406;SDS011;40313;50.308;30.374;2022-07-23T13:55:00;3.67;;;1.63;;
54406;SDS011;40313;50.308;30.374;2022-07-23T13:57:28;1.77;;;0.75;;
54406;SDS011;40313;50.308;30.374;2022-07-23T13:59:55;3.05;;;0.85;;
54406;SDS011;40313;50.308;30.374;2022-07-23T14:02:22;13.75;;;1.15;;
54406;SDS011;40313;50.308;30.374;2022-07-23T14:04:48;3.00;;;0.70;;
54406;SDS011;40313;50.308;30.374;2022-07-23T14:07:16;2.67;;;0.80;;
54406;SDS011;40313;50.308;30.374;2022-07-23T14:09:43;1.83;;;0.70;;
54406;SDS011;40313;50.308;30.374;2022-07-23T14:12:11;9.80;;;4.18;;
54406;SDS011;40313;50.308;30.374;2022-07-23T14:14:38;1.27;;;0.90;;
54406;SDS011;40313;50.308;30.374;2022-07-23T14:17:04;6.15;;;1.27;;
54406;SDS011;40313;50.308;30.374;2022-07-23T14:19:31;1.58;;;0.90;;
54406;SDS011;40313;50.308;30.374;2022-07-23T14:21:58;7.18;;;0.98;;
54406;SDS011;40313;50.308;30.374;2022-07-23T14:24:25;1.52;;;0.93;;
54406;SDS011;40313;50.308;30.374;2022-07-23T14:26:51;5.80;;;0.82;;
54406;SDS011;40313;50.308;30.374;2022-07-23T14:29:19;0.82;;;0.82;;
54406;SDS011;40313;50.308;30.374;2022-07-23T14:31:46;1.33;;;0.90;;
54406;SDS011;40313;50.308;30.374;2022-07-23T14:34:13;2.63;;;0.85;;
54406;SDS011;40313;50.308;30.374;2022-07-23T14:36:40;2.40;;;1.02;;
54406;SDS011;40313;50.308;30.374;2022-07-23T14:39:07;1.65;;;0.90;;
54406;SDS011;40313;50.308;30.374;2022-07-23T14:41:34;2.85;;;0.65;;
54406;SDS011;40313;50.308;30.374;2022-07-23T14:44:01;1.67;;;0.90;;
54406;SDS011;40313;50.308;30.374;2022-07-23T14:46:30;5.72;;;1.13;;
54406;SDS011;40313;50.308;30.374;2022-07-23T14:48:57;14.90;;;0.95;;
54406;SDS011;40313;50.308;30.374;2022-07-23T14:51:23;1.38;;;1.00;;
54406;SDS011;40313;50.308;30.374;2022-07-23T14:53:50;9.32;;;1.00;;
54406;SDS011;40313;50.308;30.374;2022-07-23T14:56:17;12.10;;;1.75;;
54406;SDS011;40313;50.308;30.374;2022-07-23T14:58:44;3.08;;;2.88;;
54406;SDS011;40313;50.308;30.374;2022-07-23T15:01:10;1.45;;;1.10;;
54406;SDS011;40313;50.308;30.374;2022-07-23T15:03:38;5.97;;;0.73;;
54406;SDS011;40313;50.308;30.374;2022-07-23T15:06:05;1.02;;;0.93;;
54406;SDS011;40313;50.308;30.374;2022-07-23T15:08:32;1.70;;;0.98;;
54406;SDS011;40313;50.308;30.374;2022-07-23T15:10:59;2.63;;;1.38;;
54406;SDS011;40313;50.308;30.374;2022-07-23T15:13:26;1.63;;;1.10;;
54406;SDS011;40313;50.308;30.374;2022-07-23T15:15:53;3.65;;;0.93;;
54406;SDS011;40313;50.308;30.374;2022-07-23T15:18:20;1.00;;;0.88;;
54406;SDS011;40313;50.308;30.374;2022-07-23T15:20:48;1.30;;;0.90;;
54406;SDS011;40313;50.308;30.374;2022-07-23T15:23:14;7.43;;;0.90;;
54406;SDS011;40313;50.308;30.374;2022-07-23T15:25:41;2.15;;;0.70;;
54406;SDS011;40313;50.308;30.374;2022-07-23T15:28:08;1.35;;;1.10;;
54406;SDS011;40313;50.308;30.374;2022-07-23T15:30:34;2.05;;;0.90;;
54406;SDS011;40313;50.308;30.374;2022-07-23T15:33:01;5.88;;;1.10;;
54406;SDS011;40313;50.308;30.374;2022-07-23T15:35:29;5.72;;;0.60;;
54406;SDS011;40313;50.308;30.374;2022-07-23T15:37:58;1.77;;;0.82;;
54406;SDS011;40313;50.308;30.374;2022-07-23T15:40:25;1.23;;;0.82;;
54406;SDS011;40313;50.308;30.374;2022-07-23T15:42:51;1.00;;;0.90;;
54406;SDS011;40313;50.308;30.374;2022-07-23T15:45:18;2.42;;;0.82;;
54406;SDS011;40313;50.308;30.374;2022-07-23T15:47:46;1.20;;;0.80;;
54406;SDS011;40313;50.308;30.374;2022-07-23T15:50:14;0.80;;;0.73;;
54406;SDS011;40313;50.308;30.374;2022-07-23T15:52:41;1.42;;;0.80;;
54406;SDS011;40313;50.308;30.374;2022-07-23T15:55:09;6.88;;;0.82;;
54406;SDS011;40313;50.308;30.374;2022-07-23T15:57:36;1.60;;;0.77;;
54406;SDS011;40313;50.308;30.374;2022-07-23T16:00:03;3.70;;;1.15;;
54406;SDS011;40313;50.308;30.374;2022-07-23T16:02:31;2.33;;;0.70;;